createdAt,value
2022-09-14T00:01:14.241Z,99365.75
2022-09-14T00:03:40.959Z,99357.62
2022-09-14T00:06:08.408Z,99347.94
2022-09-14T00:08:35.660Z,99355.56
2022-09-14T00:11:09.879Z,99363.81
2022-09-14T00:13:36.605Z,99362.34
2022-09-14T00:16:04.754Z,99361.75
2022-09-14T00:18:31.827Z,99360.87
2022-09-14T00:21:03.767Z,99360.87
2022-09-14T00:23:30.729Z,99357.12
2022-09-14T00:26:02.867Z,99351.28
2022-09-14T00:28:30.006Z,99357.34
2022-09-14T00:30:56.674Z,99348.88
2022-09-14T00:33:24.163Z,99349.84
2022-09-14T00:35:51.176Z,99354.44
2022-09-14T00:38:17.855Z,99358.22
2022-09-14T00:40:44.543Z,99366.28
2022-09-14T00:43:14.930Z,99361.84
2022-09-14T00:45:41.730Z,99364.78
2022-09-14T00:48:08.528Z,99352.91
2022-09-14T00:50:35.896Z,99353.94
2022-09-14T00:53:02.939Z,99348.34
2022-09-14T00:55:29.712Z,99345.94
2022-09-14T00:57:56.769Z,99330.78
2022-09-14T01:00:24.548Z,99328.84
2022-09-14T01:02:51.409Z,99331.44
2022-09-14T01:05:19.382Z,99333.53
2022-09-14T01:07:58.888Z,99330.44
2022-09-14T01:10:25.857Z,99328.31
2022-09-14T01:13:11.439Z,99334.03
2022-09-14T01:15:38.420Z,99332.38
2022-09-14T01:18:09.564Z,99328.06
2022-09-14T01:20:54.172Z,99326.31
2022-09-14T01:23:27.650Z,99321.78
2022-09-14T01:26:10.020Z,99323.22
2022-09-14T01:28:43.502Z,99320.81
2022-09-14T01:31:14.511Z,99334.31
2022-09-14T01:33:47.091Z,99330.13
2022-09-14T01:36:13.924Z,99313.00
2022-09-14T01:38:42.477Z,99309.03
2022-09-14T01:41:12.908Z,99303.44
2022-09-14T01:43:43.721Z,99311.97
2022-09-14T01:46:12.438Z,99305.75
2022-09-14T01:48:41.342Z,99302.34
2022-09-14T01:51:08.822Z,99305.91
2022-09-14T01:53:37.851Z,99301.63
2022-09-14T01:56:15.351Z,99291.25
2022-09-14T01:58:47.244Z,99289.75
2022-09-14T02:01:15.778Z,99280.28
2022-09-14T02:03:44.922Z,99278.00
2022-09-14T02:06:32.861Z,99273.28
2022-09-14T02:09:00.344Z,99273.28
2022-09-14T02:11:27.336Z,99268.94
2022-09-14T02:13:54.004Z,99263.72
2022-09-14T02:16:21.302Z,99264.69
2022-09-14T02:18:48.257Z,99261.69
2022-09-14T02:21:18.625Z,99251.69
2022-09-14T02:23:46.244Z,99248.53
2022-09-14T02:26:13.179Z,99252.31
2022-09-14T02:28:39.954Z,99247.16
2022-09-14T02:31:06.748Z,99249.50
2022-09-14T02:33:54.783Z,99239.31
2022-09-14T02:36:37.096Z,99243.91
2022-09-14T02:39:22.893Z,99257.53
2022-09-14T02:42:01.609Z,99244.97
2022-09-14T02:44:35.311Z,99244.75
2022-09-14T02:47:15.716Z,99248.25
2022-09-14T02:49:50.949Z,99246.66
2022-09-14T02:52:40.059Z,99238.97
2022-09-14T02:55:08.144Z,99240.22
2022-09-14T02:57:54.779Z,99242.91
2022-09-14T03:00:21.744Z,99238.91
2022-09-14T03:02:48.460Z,99227.50
2022-09-14T03:05:15.270Z,99217.72
2022-09-14T03:07:42.236Z,99214.97
2022-09-14T03:10:09.028Z,99216.78
2022-09-14T03:12:37.636Z,99222.03
2022-09-14T03:15:05.101Z,99224.28
2022-09-14T03:17:32.047Z,99226.63
2022-09-14T03:19:58.778Z,99231.47
2022-09-14T03:22:25.728Z,99221.69
2022-09-14T03:24:52.422Z,99224.72
2022-09-14T03:27:19.164Z,99222.75
2022-09-14T03:29:46.539Z,99219.62
2022-09-14T03:32:14.623Z,99212.25
2022-09-14T03:34:41.313Z,99209.44
2022-09-14T03:37:08.518Z,99208.25
2022-09-14T03:39:35.219Z,99206.91
2022-09-14T03:42:01.913Z,99211.91
2022-09-14T03:44:29.109Z,99230.87
2022-09-14T03:46:56.075Z,99226.47
2022-09-14T03:49:22.901Z,99227.19
2022-09-14T03:51:49.897Z,99216.06
2022-09-14T03:54:16.747Z,99213.47
2022-09-14T03:56:43.409Z,99219.91
2022-09-14T03:59:10.421Z,99229.81
2022-09-14T04:01:38.134Z,99227.97
2022-09-14T04:04:05.212Z,99224.44
2022-09-14T04:06:32.753Z,99222.94
2022-09-14T04:09:00.093Z,99215.94
2022-09-14T04:11:28.213Z,99217.66
2022-09-14T04:13:54.928Z,99224.44
2022-09-14T04:16:23.356Z,99219.44
2022-09-14T04:18:50.373Z,99215.47
2022-09-14T04:21:18.726Z,99205.00
2022-09-14T04:24:10.542Z,99199.53
2022-09-14T04:26:32.912Z,99193.19
2022-09-14T04:28:59.576Z,99196.09
2022-09-14T04:31:26.377Z,99203.56
2022-09-14T04:33:54.217Z,99197.25
2022-09-14T04:36:22.498Z,99197.97
2022-09-14T04:38:52.334Z,99196.34
2022-09-14T04:41:20.549Z,99196.47
2022-09-14T04:43:47.816Z,99191.25
2022-09-14T04:46:15.593Z,99187.16
2022-09-14T04:48:42.841Z,99175.91
2022-09-14T04:51:19.686Z,99170.84
2022-09-14T04:53:47.516Z,99172.00
2022-09-14T04:56:14.594Z,99171.38
2022-09-14T04:58:51.396Z,99169.56
2022-09-14T05:01:19.674Z,99171.84
2022-09-14T05:03:46.426Z,99172.84
2022-09-14T05:06:17.061Z,99168.41
2022-09-14T05:08:44.319Z,99173.72
2022-09-14T05:11:12.475Z,99178.41
2022-09-14T05:13:46.259Z,99178.59
2022-09-14T05:16:20.624Z,99180.88
2022-09-14T05:18:47.884Z,99190.31
2022-09-14T05:21:15.989Z,99193.97
2022-09-14T05:23:42.975Z,99193.28
2022-09-14T05:26:09.767Z,99185.50
2022-09-14T05:28:36.675Z,99179.50
2022-09-14T05:31:04.649Z,99157.88
2022-09-14T05:33:31.406Z,99157.56
2022-09-14T05:36:08.160Z,99149.78
2022-09-14T05:38:35.905Z,99157.66
2022-09-14T05:41:02.643Z,99168.16
2022-09-14T05:43:29.508Z,99180.41
2022-09-14T05:45:56.609Z,99166.19
2022-09-14T05:48:23.342Z,99160.53
2022-09-14T05:50:50.047Z,99170.66
2022-09-14T05:53:17.003Z,99179.06
2022-09-14T05:55:43.676Z,99185.59
2022-09-14T05:58:11.147Z,99178.72
2022-09-14T06:00:39.529Z,99171.28
2022-09-14T06:03:07.480Z,99164.44
2022-09-14T06:05:35.660Z,99170.34
2022-09-14T06:08:02.641Z,99166.91
2022-09-14T06:10:29.605Z,99166.53
2022-09-14T06:12:56.294Z,99156.69
2022-09-14T06:15:24.669Z,99153.53
2022-09-14T06:17:51.712Z,99145.19
2022-09-14T06:20:30.203Z,99150.22
2022-09-14T06:23:03.139Z,99152.25
2022-09-14T06:25:31.275Z,99160.63
2022-09-14T06:27:57.959Z,99156.56
2022-09-14T06:30:25.107Z,99158.50
2022-09-14T06:32:51.822Z,99157.72
2022-09-14T06:35:18.566Z,99165.69
2022-09-14T06:37:46.015Z,99175.69
2022-09-14T06:40:12.869Z,99186.91
2022-09-14T06:42:39.600Z,99198.66
2022-09-14T06:45:06.876Z,99196.53
2022-09-14T06:47:33.717Z,99200.34
2022-09-14T06:50:00.890Z,99207.31
2022-09-14T06:52:31.699Z,99200.87
2022-09-14T06:55:00.401Z,99205.31
2022-09-14T06:57:27.361Z,99193.16
2022-09-14T06:59:54.135Z,99186.81
2022-09-14T07:02:21.315Z,99179.94
2022-09-14T07:04:48.384Z,99167.53
2022-09-14T07:07:15.569Z,99159.75
2022-09-14T07:09:42.302Z,99161.34
2022-09-14T07:12:09.795Z,99155.69
2022-09-14T07:14:36.852Z,99164.19
2022-09-14T07:17:03.569Z,99188.53
2022-09-14T07:19:30.589Z,99187.63
2022-09-14T07:21:57.285Z,99188.59
2022-09-14T07:24:23.951Z,99187.81
2022-09-14T07:26:50.921Z,99181.25
2022-09-14T07:29:18.579Z,99179.69
2022-09-14T07:31:48.329Z,99181.06
2022-09-14T07:34:15.424Z,99175.84
2022-09-14T07:36:42.356Z,99178.25
2022-09-14T07:39:10.120Z,99181.44
2022-09-14T07:41:37.227Z,99192.34
2022-09-14T07:44:05.109Z,99181.34
2022-09-14T07:46:37.149Z,99170.53
2022-09-14T07:49:05.058Z,99159.69
2022-09-14T07:51:32.052Z,99164.34
2022-09-14T07:54:00.833Z,99169.50
2022-09-14T07:56:28.045Z,99165.94
2022-09-14T07:59:11.419Z,99169.72
2022-09-14T08:01:43.900Z,99168.75
2022-09-14T08:04:10.594Z,99146.50
2022-09-14T08:06:37.357Z,99144.56
2022-09-14T08:09:05.972Z,99126.91
2022-09-14T08:11:32.624Z,99134.06
2022-09-14T08:14:00.079Z,99142.66
2022-09-14T08:16:28.431Z,99148.81
2022-09-14T08:18:55.867Z,99149.28
2022-09-14T08:21:22.823Z,99147.44
2022-09-14T08:23:49.526Z,99149.16
2022-09-14T08:26:17.342Z,99151.50
2022-09-14T08:28:43.983Z,99146.19
2022-09-14T08:31:14.785Z,99131.59
2022-09-14T08:33:45.121Z,99114.59
2022-09-14T08:36:13.009Z,99121.31
2022-09-14T08:38:39.567Z,99114.88
2022-09-14T08:41:11.577Z,99122.47
2022-09-14T08:43:38.821Z,99133.22
2022-09-14T08:46:05.895Z,99128.44
2022-09-14T08:48:36.549Z,99128.69
2022-09-14T08:51:03.842Z,99131.41
2022-09-14T08:53:30.492Z,99134.38
2022-09-14T08:56:00.981Z,99117.34
2022-09-14T08:58:47.544Z,99111.16
2022-09-14T09:01:20.757Z,99118.78
2022-09-14T09:03:56.709Z,99121.91
2022-09-14T09:06:23.317Z,99110.22
2022-09-14T09:09:22.354Z,99107.44
2022-09-14T09:11:49.646Z,99103.59
2022-09-14T09:14:42.330Z,99113.16
2022-09-14T09:17:38.297Z,99119.53
2022-09-14T09:20:07.056Z,99128.97
2022-09-14T09:22:36.299Z,99135.09
2022-09-14T09:25:03.212Z,99136.12
2022-09-14T09:27:29.782Z,99149.09
2022-09-14T09:29:56.317Z,99148.84
2022-09-14T09:32:26.672Z,99146.87
2022-09-14T09:34:55.257Z,99157.09
2022-09-14T09:37:23.808Z,99159.00
2022-09-14T09:39:51.183Z,99153.97
2022-09-14T09:42:20.842Z,99156.53
2022-09-14T09:44:58.044Z,99157.31
2022-09-14T09:47:30.297Z,99148.91
2022-09-14T09:49:58.551Z,99146.91
2022-09-14T09:52:25.436Z,99150.34
2022-09-14T09:54:52.675Z,99148.88
2022-09-14T09:57:21.354Z,99145.38
2022-09-14T09:59:48.599Z,99139.59
2022-09-14T10:02:18.336Z,99141.59
2022-09-14T10:05:04.078Z,99158.00
2022-09-14T10:07:31.813Z,99159.16
2022-09-14T10:10:00.202Z,99176.84
2022-09-14T10:12:27.168Z,99171.50
2022-09-14T10:15:03.949Z,99172.59
2022-09-14T10:17:30.949Z,99172.25
2022-09-14T10:19:58.334Z,99164.81
2022-09-14T10:22:32.508Z,99157.66
2022-09-14T10:25:02.811Z,99158.97
2022-09-14T10:27:37.984Z,99151.72
2022-09-14T10:30:18.721Z,99136.81
2022-09-14T10:33:05.655Z,99142.47
2022-09-14T10:35:35.725Z,99129.88
2022-09-14T10:38:08.774Z,99132.50
2022-09-14T10:40:39.323Z,99138.91
2022-09-14T10:43:10.690Z,99141.19
2022-09-14T10:45:49.758Z,99142.78
2022-09-14T10:48:25.506Z,99138.53
2022-09-14T10:50:58.861Z,99133.53
2022-09-14T10:53:43.644Z,99136.25
2022-09-14T10:56:13.373Z,99144.16
2022-09-14T10:58:43.319Z,99140.41
2022-09-14T11:01:10.319Z,99149.44
2022-09-14T11:03:52.050Z,99148.06
2022-09-14T11:06:28.267Z,99152.94
2022-09-14T11:09:02.298Z,99157.50
2022-09-14T11:11:32.044Z,99137.81
2022-09-14T11:14:02.283Z,99137.31
2022-09-14T11:16:29.282Z,99134.94
2022-09-14T11:19:03.050Z,99124.63
2022-09-14T11:21:30.066Z,99123.97
2022-09-14T11:24:02.826Z,99124.78
2022-09-14T11:26:38.057Z,99123.94
2022-09-14T11:29:18.458Z,99123.13
2022-09-14T11:32:19.258Z,99123.41
2022-09-14T11:34:43.916Z,99123.16
2022-09-14T11:37:12.324Z,99122.09
2022-09-14T11:39:43.419Z,99123.47
2022-09-14T11:42:24.031Z,99107.91
2022-09-14T11:44:52.960Z,99105.06
2022-09-14T11:47:20.632Z,99097.53
2022-09-14T11:49:55.176Z,99093.44
2022-09-14T11:52:26.128Z,99098.59
2022-09-14T11:54:53.307Z,99114.38
2022-09-14T11:57:27.016Z,99108.66
2022-09-14T11:59:55.507Z,99100.50
2022-09-14T12:02:25.155Z,99102.13
2022-09-14T12:05:07.491Z,99094.31
2022-09-14T12:07:40.583Z,99095.56
2022-09-14T12:10:17.929Z,99090.06
2022-09-14T12:12:48.873Z,99090.06
2022-09-14T12:15:17.575Z,99091.06
2022-09-14T12:17:45.323Z,99086.75
2022-09-14T12:20:31.172Z,99086.09
2022-09-14T12:23:10.583Z,99076.47
2022-09-14T12:25:37.843Z,99077.13
2022-09-14T12:28:20.331Z,99077.28
2022-09-14T12:30:47.035Z,99070.72
2022-09-14T12:33:32.730Z,99067.22
2022-09-14T12:35:59.822Z,99060.31
2022-09-14T12:38:29.907Z,99057.44
2022-09-14T12:40:59.728Z,99051.75
2022-09-14T12:43:32.707Z,99042.34
2022-09-14T12:46:03.804Z,99038.50
2022-09-14T12:48:46.623Z,99035.78
2022-09-14T12:51:14.197Z,99030.72
2022-09-14T12:53:41.280Z,99026.97
2022-09-14T12:56:12.801Z,99013.88
2022-09-14T12:58:51.050Z,99016.34
2022-09-14T13:01:20.775Z,99012.16
2022-09-14T13:03:50.715Z,99002.06
2022-09-14T13:06:17.684Z,98997.91
2022-09-14T13:08:45.467Z,99001.16
2022-09-14T13:11:18.400Z,98990.66
2022-09-14T13:13:45.395Z,98994.91
2022-09-14T13:16:13.335Z,98989.59
2022-09-14T13:18:40.276Z,99002.84
2022-09-14T13:21:18.240Z,99006.75
2022-09-14T13:23:45.091Z,99000.28
2022-09-14T13:26:17.049Z,99003.94
2022-09-14T13:28:45.339Z,98999.28
2022-09-14T13:31:13.585Z,99004.56
2022-09-14T13:33:45.254Z,99012.84
2022-09-14T13:36:15.519Z,99010.66
2022-09-14T13:38:42.203Z,99011.22
2022-09-14T13:41:13.536Z,99011.59
2022-09-14T13:43:41.340Z,99016.16
2022-09-14T13:46:08.331Z,99011.75
2022-09-14T13:48:36.092Z,99006.38
2022-09-14T13:51:03.068Z,99006.84
2022-09-14T13:53:38.684Z,99007.97
2022-09-14T13:56:26.649Z,99004.97
2022-09-14T13:59:08.661Z,98997.97
2022-09-14T14:01:38.245Z,98999.28
2022-09-14T14:04:05.303Z,98998.34
2022-09-14T14:06:32.718Z,99002.31
2022-09-14T14:09:06.658Z,99004.38
2022-09-14T14:11:41.203Z,98989.06
2022-09-14T14:14:14.119Z,98980.34
2022-09-14T14:16:41.208Z,98979.00
2022-09-14T14:19:27.294Z,98984.50
2022-09-14T14:22:11.655Z,98976.00
2022-09-14T14:24:49.885Z,98970.28
2022-09-14T14:27:31.619Z,98971.34
2022-09-14T14:29:59.347Z,98962.56
2022-09-14T14:32:26.311Z,98975.16
2022-09-14T14:34:53.464Z,98977.91
2022-09-14T14:37:20.350Z,98982.03
2022-09-14T14:39:49.792Z,98973.50
2022-09-14T14:42:16.936Z,98960.03
2022-09-14T14:44:44.105Z,98954.19
2022-09-14T14:47:12.653Z,98954.16
2022-09-14T14:49:39.359Z,98940.13
2022-09-14T14:52:06.851Z,98948.63
2022-09-14T14:54:33.870Z,98944.59
2022-09-14T14:57:02.195Z,98944.13
2022-09-14T14:59:29.521Z,98948.87
2022-09-14T15:01:56.943Z,98939.78
2022-09-14T15:04:23.690Z,98940.50
2022-09-14T15:06:50.644Z,98937.12
2022-09-14T15:09:22.538Z,98935.53
2022-09-14T15:11:49.957Z,98933.97
2022-09-14T15:14:18.862Z,98931.81
2022-09-14T15:16:46.015Z,98938.78
2022-09-14T15:19:12.790Z,98934.81
2022-09-14T15:21:40.539Z,98934.41
2022-09-14T15:24:07.522Z,98916.44
2022-09-14T15:26:34.501Z,98919.06
2022-09-14T15:29:01.933Z,98913.25
2022-09-14T15:31:28.845Z,98918.63
2022-09-14T15:33:55.679Z,98907.00
2022-09-14T15:36:36.097Z,98907.78
2022-09-14T15:39:03.241Z,98907.81
2022-09-14T15:41:30.187Z,98903.34
2022-09-14T15:43:56.963Z,98896.16
2022-09-14T15:46:23.648Z,98889.09
2022-09-14T15:48:50.720Z,98892.94
2022-09-14T15:51:19.636Z,98892.25
2022-09-14T15:53:47.166Z,98898.50
2022-09-14T15:56:14.843Z,98902.28
2022-09-14T15:58:47.278Z,98911.72
2022-09-14T16:01:15.967Z,98914.78
2022-09-14T16:03:43.212Z,98924.22
2022-09-14T16:06:10.451Z,98922.72
2022-09-14T16:19:16.137Z,98931.38
2022-09-14T16:21:43.348Z,98931.38
2022-09-14T16:24:15.078Z,98943.84
2022-09-14T16:26:41.892Z,98941.06
2022-09-14T16:29:11.568Z,98933.37
2022-09-14T16:31:38.846Z,98926.97
2022-09-14T16:34:06.855Z,98918.81
2022-09-14T16:36:34.897Z,98924.63
2022-09-14T16:39:02.358Z,98919.16
2022-09-14T16:41:29.675Z,98907.84
2022-09-14T16:43:57.234Z,98903.91
2022-09-14T16:46:24.270Z,98906.47
2022-09-14T16:48:51.319Z,98905.59
2022-09-14T16:51:22.392Z,98903.03
2022-09-14T16:53:49.709Z,98902.19
2022-09-14T16:56:17.630Z,98905.69
2022-09-14T16:58:45.559Z,98900.84
2022-09-14T17:01:16.476Z,98910.13
2022-09-14T17:03:44.114Z,98901.22
2022-09-14T17:06:14.941Z,98900.66
2022-09-14T17:08:43.951Z,98902.44
2022-09-14T17:11:11.767Z,98894.59
2022-09-14T17:13:38.550Z,98886.59
2022-09-14T17:16:06.232Z,98877.22
2022-09-14T17:18:33.727Z,98877.81
2022-09-14T17:21:01.615Z,98883.41
2022-09-14T17:23:28.626Z,98881.19
2022-09-14T17:25:56.071Z,98870.69
2022-09-14T17:28:23.934Z,98861.72
2022-09-14T17:30:53.995Z,98858.97
2022-09-14T17:33:21.261Z,98853.19
2022-09-14T17:35:48.508Z,98854.19
2022-09-14T17:38:15.686Z,98855.75
2022-09-14T17:40:42.910Z,98858.47
2022-09-14T17:43:09.990Z,98850.63
2022-09-14T17:45:37.351Z,98844.31
2022-09-14T17:48:08.635Z,98839.03
2022-09-14T17:50:35.558Z,98829.31
2022-09-14T17:53:02.478Z,98834.50
2022-09-14T17:55:39.483Z,98837.47
2022-09-14T17:58:06.456Z,98844.78
2022-09-14T18:00:42.723Z,98842.06
2022-09-14T18:03:09.975Z,98844.28
2022-09-14T18:05:37.836Z,98837.94
2022-09-14T18:08:04.788Z,98846.47
2022-09-14T18:10:31.951Z,98843.22
2022-09-14T18:12:58.971Z,98852.22
2022-09-14T18:15:40.211Z,98863.44
2022-09-14T18:18:07.961Z,98871.97
2022-09-14T18:20:39.936Z,98880.37
2022-09-14T18:23:08.922Z,98886.81
2022-09-14T18:25:41.312Z,98887.28
2022-09-14T18:28:10.015Z,98885.53
2022-09-14T18:30:42.914Z,98887.94
2022-09-14T18:33:11.029Z,98877.75
2022-09-14T18:35:49.760Z,98877.75
2022-09-14T18:38:17.357Z,98862.41
2022-09-14T18:40:44.947Z,98857.34
2022-09-14T18:43:12.464Z,98857.03
2022-09-14T18:45:55.584Z,98856.47
2022-09-14T18:48:24.253Z,98862.38
2022-09-14T18:50:58.677Z,98864.56
2022-09-14T18:53:26.203Z,98864.09
2022-09-14T18:55:57.724Z,98851.81
2022-09-14T18:58:25.114Z,98849.06
2022-09-14T19:00:53.477Z,98845.22
2022-09-14T19:03:21.199Z,98850.69
2022-09-14T19:05:49.181Z,98851.16
2022-09-14T19:08:16.285Z,98855.44
2022-09-14T19:10:52.113Z,98852.88
2022-09-14T19:13:19.599Z,98851.00
2022-09-14T19:15:51.529Z,98844.19
2022-09-14T19:18:18.872Z,98845.88
2022-09-14T19:21:05.818Z,98842.63
2022-09-14T19:23:37.246Z,98829.75
2022-09-14T19:26:07.834Z,98821.22
2022-09-14T19:28:35.738Z,98834.37
2022-09-14T19:31:06.966Z,98843.25
2022-09-14T19:33:34.336Z,98841.69
2022-09-14T19:36:14.749Z,98834.22
2022-09-14T19:38:42.356Z,98833.53
2022-09-14T19:41:09.627Z,98828.34
2022-09-14T19:43:37.772Z,98824.97
2022-09-14T19:46:09.242Z,98814.22
2022-09-14T19:48:36.521Z,98818.34
2022-09-14T19:51:07.850Z,98817.41
2022-09-14T19:53:35.910Z,98824.78
2022-09-14T19:56:04.261Z,98820.75
2022-09-14T19:58:34.379Z,98831.88
2022-09-14T20:01:02.067Z,98827.84
2022-09-14T20:03:29.415Z,98824.88
2022-09-14T20:06:19.705Z,98817.47
2022-09-14T20:08:47.393Z,98810.47
2022-09-14T20:11:19.197Z,98801.94
2022-09-14T20:13:48.591Z,98803.03
2022-09-14T20:16:22.799Z,98807.06
2022-09-14T20:18:50.279Z,98798.97
2022-09-14T20:21:21.589Z,98805.94
2022-09-14T20:24:14.165Z,98803.63
2022-09-14T20:26:37.112Z,98795.41
2022-09-14T20:29:03.885Z,98807.34
2022-09-14T20:31:31.025Z,98801.12
2022-09-14T20:33:58.341Z,98804.41
2022-09-14T20:36:25.325Z,98801.88
2022-09-14T20:38:56.032Z,98787.81
2022-09-14T20:41:23.882Z,98783.47
2022-09-14T20:43:50.769Z,98786.66
2022-09-14T20:46:19.007Z,98785.03
2022-09-14T20:48:46.701Z,98784.56
2022-09-14T20:51:17.228Z,98777.88
2022-09-14T20:53:47.353Z,98771.84
2022-09-14T20:56:15.303Z,98780.94
2022-09-14T20:58:42.433Z,98772.00
2022-09-14T21:01:10.894Z,98769.84
2022-09-14T21:03:40.229Z,98780.38
2022-09-14T21:06:08.948Z,98787.81
2022-09-14T21:08:36.471Z,98793.66
2022-09-14T21:11:04.152Z,98798.84
2022-09-14T21:13:30.858Z,98797.22
2022-09-14T21:15:58.294Z,98803.72
2022-09-14T21:18:25.042Z,98805.81
2022-09-14T21:20:51.850Z,98802.63
2022-09-14T21:23:18.867Z,98801.34
2022-09-14T21:25:45.647Z,98804.56
2022-09-14T21:28:12.321Z,98797.59
2022-09-14T21:30:39.344Z,98793.06
2022-09-14T21:33:08.112Z,98790.38
2022-09-14T21:35:34.890Z,98789.28
2022-09-14T21:38:01.827Z,98793.56
2022-09-14T21:40:28.653Z,98792.38
2022-09-14T21:42:55.378Z,98789.53
2022-09-14T21:45:22.629Z,98790.94
2022-09-14T21:47:49.871Z,98787.81
2022-09-14T21:50:16.840Z,98789.53
2022-09-14T21:52:44.732Z,98789.69
2022-09-14T21:55:11.626Z,98797.69
2022-09-14T21:57:38.337Z,98795.69
2022-09-14T22:00:06.763Z,98800.38
2022-09-14T22:02:34.482Z,98789.87
2022-09-14T22:05:02.075Z,98791.22
2022-09-14T22:07:29.296Z,98790.78
2022-09-14T22:09:56.842Z,98780.22
2022-09-14T22:12:23.800Z,98782.09
2022-09-14T22:14:52.001Z,98777.41
2022-09-14T22:17:18.678Z,98778.59
2022-09-14T22:19:45.706Z,98783.47
2022-09-14T22:22:12.796Z,98798.28
2022-09-14T22:24:39.592Z,98792.47
2022-09-14T22:27:09.844Z,98787.34
2022-09-14T22:29:37.364Z,98799.63
2022-09-14T22:32:07.125Z,98803.19
2022-09-14T22:34:35.814Z,98808.91
2022-09-14T22:37:02.655Z,98804.75
2022-09-14T22:39:29.631Z,98798.75
2022-09-14T22:41:56.603Z,98797.59
2022-09-14T22:44:23.253Z,98793.22
2022-09-14T22:46:49.999Z,98788.28
2022-09-14T22:49:16.970Z,98785.00
2022-09-14T22:51:43.644Z,98789.84
2022-09-14T22:54:10.322Z,98778.34
2022-09-14T22:56:38.179Z,98775.72
2022-09-14T22:59:05.797Z,98777.59
2022-09-14T23:01:34.607Z,98786.56
2022-09-14T23:04:03.232Z,98786.91
2022-09-14T23:06:37.330Z,98788.91
2022-09-14T23:09:04.675Z,98789.13
2022-09-14T23:11:31.426Z,98779.59
2022-09-14T23:13:58.946Z,98781.37
2022-09-14T23:16:27.429Z,98774.66
2022-09-14T23:18:55.132Z,98771.72
2022-09-14T23:21:21.899Z,98758.22
2022-09-14T23:23:55.961Z,98769.84
2022-09-14T23:26:23.155Z,98768.91
2022-09-14T23:28:51.063Z,98780.56
2022-09-14T23:31:19.293Z,98775.81
2022-09-14T23:33:48.547Z,98785.34
2022-09-14T23:36:15.491Z,98793.25
2022-09-14T23:38:42.135Z,98790.56
2022-09-14T23:41:08.858Z,98796.69
2022-09-14T23:43:35.878Z,98775.97
2022-09-14T23:46:02.647Z,98776.28
2022-09-14T23:48:29.666Z,98776.22
2022-09-14T23:50:57.589Z,98773.56
2022-09-14T23:53:24.267Z,98759.88
2022-09-14T23:55:51.197Z,98743.44
2022-09-14T23:58:18.220Z,98727.31
